sensor_id;sensor_type;location;lat;lon;timestamp;pressure;altitude;pressure_sealevel;temperature;humidity
21956;BME280;11142;49.930;8.606;2022-12-07T00:01:56;100239.78;;;6.51;100.00
21956;BME280;11142;49.930;8.606;2022-12-07T00:04:29;100236.19;;;6.55;100.00
21956;BME280;11142;49.930;8.606;2022-12-07T00:07:19;100237.72;;;6.59;100.00
21956;BME280;11142;49.930;8.606;2022-12-07T00:10:02;100234.06;;;6.63;100.00
21956;BME280;11142;49.930;8.606;2022-12-07T00:12:51;100222.41;;;6.56;100.00
21956;BME280;11142;49.930;8.606;2022-12-07T00:15:44;100223.00;;;6.61;100.00
21956;BME280;11142;49.930;8.606;2022-12-07T00:18:29;100213.34;;;6.66;100.00
21956;BME280;11142;49.930;8.606;2022-12-07T00:21:14;100213.88;;;6.54;100.00
21956;BME280;11142;49.930;8.606;2022-12-07T00:23:46;100216.09;;;6.43;100.00
21956;BME280;11142;49.930;8.606;2022-12-07T00:26:19;100206.25;;;6.32;100.00
21956;BME280;11142;49.930;8.606;2022-12-07T00:29:00;100209.47;;;5.98;100.00
21956;BME280;11142;49.930;8.606;2022-12-07T00:31:30;100212.50;;;5.87;100.00
21956;BME280;11142;49.930;8.606;2022-12-07T00:34:26;100207.06;;;5.94;100.00
21956;BME280;11142;49.930;8.606;2022-12-07T00:36:54;100199.88;;;6.02;100.00
21956;BME280;11142;49.930;8.606;2022-12-07T00:39:22;100204.91;;;6.05;100.00
21956;BME280;11142;49.930;8.606;2022-12-07T00:41:52;100199.88;;;6.02;100.00
21956;BME280;11142;49.930;8.606;2022-12-07T00:44:45;100200.06;;;5.97;100.00
21956;BME280;11142;49.930;8.606;2022-12-07T00:47:16;100191.84;;;5.89;100.00
21956;BME280;11142;49.930;8.606;2022-12-07T00:49:48;100181.13;;;5.78;100.00
21956;BME280;11142;49.930;8.606;2022-12-07T00:52:17;100181.53;;;5.89;100.00
21956;BME280;11142;49.930;8.606;2022-12-07T00:54:49;100175.59;;;5.87;100.00
21956;BME280;11142;49.930;8.606;2022-12-07T00:57:27;100173.38;;;5.78;100.00
21956;BME280;11142;49.930;8.606;2022-12-07T01:00:11;100175.63;;;5.65;100.00
21956;BME280;11142;49.930;8.606;2022-12-07T01:02:43;100176.31;;;5.70;100.00
21956;BME280;11142;49.930;8.606;2022-12-07T01:05:26;100170.22;;;5.71;100.00
21956;BME280;11142;49.930;8.606;2022-12-07T01:07:56;100173.53;;;5.75;100.00
21956;BME280;11142;49.930;8.606;2022-12-07T01:10:26;100176.47;;;5.66;100.00
21956;BME280;11142;49.930;8.606;2022-12-07T01:12:59;100183.78;;;5.76;100.00
21956;BME280;11142;49.930;8.606;2022-12-07T01:15:31;100172.88;;;5.90;100.00
21956;BME280;11142;49.930;8.606;2022-12-07T01:18:07;100172.22;;;5.85;100.00
21956;BME280;11142;49.930;8.606;2022-12-07T01:20:36;100171.41;;;5.84;100.00
21956;BME280;11142;49.930;8.606;2022-12-07T01:23:09;100180.84;;;5.84;100.00
21956;BME280;11142;49.930;8.606;2022-12-07T01:25:41;100173.13;;;5.84;100.00
21956;BME280;11142;49.930;8.606;2022-12-07T01:28:16;100179.19;;;5.83;100.00
21956;BME280;11142;49.930;8.606;2022-12-07T01:30:58;100184.63;;;5.77;100.00
21956;BME280;11142;49.930;8.606;2022-12-07T01:33:29;100184.03;;;5.91;100.00
21956;BME280;11142;49.930;8.606;2022-12-07T01:36:01;100181.06;;;6.00;100.00
21956;BME280;11142;49.930;8.606;2022-12-07T01:38:42;100181.53;;;5.89;100.00
21956;BME280;11142;49.930;8.606;2022-12-07T01:41:32;100182.34;;;5.69;100.00
21956;BME280;11142;49.930;8.606;2022-12-07T01:44:18;100185.88;;;5.47;100.00
21956;BME280;11142;49.930;8.606;2022-12-07T01:47:02;100183.25;;;5.48;100.00
21956;BME280;11142;49.930;8.606;2022-12-07T01:49:36;100193.06;;;5.39;100.00
21956;BME280;11142;49.930;8.606;2022-12-07T01:52:22;100178.81;;;5.30;100.00
21956;BME280;11142;49.930;8.606;2022-12-07T01:54:52;100184.25;;;5.44;100.00
21956;BME280;11142;49.930;8.606;2022-12-07T01:57:34;100178.72;;;5.53;100.00
21956;BME280;11142;49.930;8.606;2022-12-07T02:00:21;100180.53;;;5.51;100.00
21956;BME280;11142;49.930;8.606;2022-12-07T02:05:51;100173.75;;;5.28;100.00
21956;BME280;11142;49.930;8.606;2022-12-07T02:08:21;100171.41;;;5.44;100.00
21956;BME280;11142;49.930;8.606;2022-12-07T02:10:50;100168.53;;;5.52;100.00
21956;BME280;11142;49.930;8.606;2022-12-07T02:13:25;100156.84;;;5.43;100.00
21956;BME280;11142;49.930;8.606;2022-12-07T02:16:03;100151.91;;;5.39;100.00
21956;BME280;11142;49.930;8.606;2022-12-07T02:18:38;100152.78;;;5.38;100.00
21956;BME280;11142;49.930;8.606;2022-12-07T02:21:12;100145.22;;;5.34;100.00
21956;BME280;11142;49.930;8.606;2022-12-07T02:23:49;100142.78;;;5.52;100.00
21956;BME280;11142;49.930;8.606;2022-12-07T02:26:42;100136.53;;;5.57;100.00
21956;BME280;11142;49.930;8.606;2022-12-07T02:29:22;100140.13;;;5.53;100.00
21956;BME280;11142;49.930;8.606;2022-12-07T02:31:55;100140.31;;;5.69;100.00
21956;BME280;11142;49.930;8.606;2022-12-07T02:34:36;100153.94;;;5.93;100.00
21956;BME280;11142;49.930;8.606;2022-12-07T02:39:59;100147.78;;;5.95;100.00
21956;BME280;11142;49.930;8.606;2022-12-07T02:42:33;100141.38;;;5.83;100.00
21956;BME280;11142;49.930;8.606;2022-12-07T02:45:13;100126.91;;;5.81;100.00
21956;BME280;11142;49.930;8.606;2022-12-07T02:47:45;100145.84;;;5.80;100.00
21956;BME280;11142;49.930;8.606;2022-12-07T02:50:15;100145.63;;;5.86;100.00
21956;BME280;11142;49.930;8.606;2022-12-07T02:52:46;100137.69;;;5.70;100.00
21956;BME280;11142;49.930;8.606;2022-12-07T02:55:17;100129.25;;;5.67;100.00
21956;BME280;11142;49.930;8.606;2022-12-07T02:57:54;100127.84;;;5.60;100.00
21956;BME280;11142;49.930;8.606;2022-12-07T03:00:26;100122.88;;;5.55;100.00
21956;BME280;11142;49.930;8.606;2022-12-07T03:02:55;100121.81;;;5.61;100.00
21956;BME280;11142;49.930;8.606;2022-12-07T03:05:39;100120.66;;;5.48;100.00
21956;BME280;11142;49.930;8.606;2022-12-07T03:08:11;100117.41;;;5.43;100.00
21956;BME280;11142;49.930;8.606;2022-12-07T03:10:42;100121.03;;;5.39;100.00
21956;BME280;11142;49.930;8.606;2022-12-07T03:13:16;100117.03;;;5.31;100.00
21956;BME280;11142;49.930;8.606;2022-12-07T03:18:33;100122.41;;;5.05;100.00
21956;BME280;11142;49.930;8.606;2022-12-07T03:21:04;100121.00;;;5.18;100.00
21956;BME280;11142;49.930;8.606;2022-12-07T03:23:34;100130.03;;;5.28;100.00
21956;BME280;11142;49.930;8.606;2022-12-07T03:26:05;100126.53;;;5.09;100.00
21956;BME280;11142;49.930;8.606;2022-12-07T03:28:36;100126.88;;;5.22;100.00
21956;BME280;11142;49.930;8.606;2022-12-07T03:31:09;100121.47;;;5.28;100.00
21956;BME280;11142;49.930;8.606;2022-12-07T03:33:42;100120.25;;;5.36;100.00
21956;BME280;11142;49.930;8.606;2022-12-07T03:36:16;100115.75;;;5.42;100.00
21956;BME280;11142;49.930;8.606;2022-12-07T03:38:49;100121.09;;;5.37;100.00
21956;BME280;11142;49.930;8.606;2022-12-07T03:41:20;100116.81;;;5.36;100.00
21956;BME280;11142;49.930;8.606;2022-12-07T03:43:50;100126.31;;;5.35;100.00
21956;BME280;11142;49.930;8.606;2022-12-07T03:46:20;100118.63;;;5.34;100.00
21956;BME280;11142;49.930;8.606;2022-12-07T03:48:56;100117.72;;;5.55;100.00
21956;BME280;11142;49.930;8.606;2022-12-07T03:51:28;100114.25;;;5.56;100.00
21956;BME280;11142;49.930;8.606;2022-12-07T03:53:59;100115.09;;;5.57;100.00
21956;BME280;11142;49.930;8.606;2022-12-07T05:01:15;100090.91;;;5.41;100.00
21956;BME280;11142;49.930;8.606;2022-12-07T05:03:47;100098.38;;;5.47;100.00
21956;BME280;11142;49.930;8.606;2022-12-07T05:06:15;100096.56;;;5.49;100.00
21956;BME280;11142;49.930;8.606;2022-12-07T05:08:43;100085.81;;;5.39;100.00
21956;BME280;11142;49.930;8.606;2022-12-07T05:11:11;100091.03;;;5.38;100.00
21956;BME280;11142;49.930;8.606;2022-12-07T05:14:01;100090.78;;;5.44;100.00
21956;BME280;11142;49.930;8.606;2022-12-07T05:16:31;100087.44;;;5.42;100.00
21956;BME280;11142;49.930;8.606;2022-12-07T05:18:59;100090.78;;;5.44;100.00
21956;BME280;11142;49.930;8.606;2022-12-07T05:21:27;100090.03;;;5.42;100.00
21956;BME280;11142;49.930;8.606;2022-12-07T05:23:55;100090.91;;;5.41;100.00
21956;BME280;11142;49.930;8.606;2022-12-07T05:26:23;100099.47;;;5.41;100.00
21956;BME280;11142;49.930;8.606;2022-12-07T05:28:54;100094.69;;;5.52;100.00
21956;BME280;11142;49.930;8.606;2022-12-07T05:31:25;100091.66;;;5.63;100.00
21956;BME280;11142;49.930;8.606;2022-12-07T05:33:55;100101.06;;;5.64;100.00
21956;BME280;11142;49.930;8.606;2022-12-07T05:36:23;100099.66;;;5.57;100.00
21956;BME280;11142;49.930;8.606;2022-12-07T05:38:51;100093.84;;;5.72;100.00
21956;BME280;11142;49.930;8.606;2022-12-07T05:41:20;100082.78;;;5.70;100.00
21956;BME280;11142;49.930;8.606;2022-12-07T05:44:05;100097.41;;;5.69;100.00
21956;BME280;11142;49.930;8.606;2022-12-07T05:46:33;100102.47;;;5.71;100.00
21956;BME280;11142;49.930;8.606;2022-12-07T05:49:03;100096.19;;;5.58;100.00
21956;BME280;11142;49.930;8.606;2022-12-07T05:51:31;100101.00;;;5.65;100.00
21956;BME280;11142;49.930;8.606;2022-12-07T05:53:58;100098.38;;;5.67;100.00
21956;BME280;11142;49.930;8.606;2022-12-07T05:56:27;100096.09;;;5.79;100.00
21956;BME280;11142;49.930;8.606;2022-12-07T05:58:55;100105.81;;;5.73;100.00
21956;BME280;11142;49.930;8.606;2022-12-07T06:01:40;100102.72;;;5.65;100.00
21956;BME280;11142;49.930;8.606;2022-12-07T06:04:09;100101.06;;;5.64;100.00
21956;BME280;11142;49.930;8.606;2022-12-07T06:06:38;100095.31;;;5.77;100.00
21956;BME280;11142;49.930;8.606;2022-12-07T06:09:06;100090.06;;;5.60;100.00
21956;BME280;11142;49.930;8.606;2022-12-07T06:11:34;100092.25;;;5.69;100.00
21956;BME280;11142;49.930;8.606;2022-12-07T06:14:20;100091.66;;;5.63;100.00
21956;BME280;11142;49.930;8.606;2022-12-07T06:16:48;100082.13;;;5.65;100.00
21956;BME280;11142;49.930;8.606;2022-12-07T06:19:17;100086.78;;;5.77;100.00
21956;BME280;11142;49.930;8.606;2022-12-07T06:21:46;100093.09;;;5.70;100.00
21956;BME280;11142;49.930;8.606;2022-12-07T06:24:14;100093.44;;;5.81;100.00
21956;BME280;11142;49.930;8.606;2022-12-07T06:26:43;100084.59;;;5.88;100.00
21956;BME280;11142;49.930;8.606;2022-12-07T06:29:11;100089.41;;;5.75;100.00
21956;BME280;11142;49.930;8.606;2022-12-07T06:31:39;100094.81;;;5.69;100.00
21956;BME280;11142;49.930;8.606;2022-12-07T06:34:09;100092.69;;;5.79;100.00
21956;BME280;11142;49.930;8.606;2022-12-07T06:36:39;100090.25;;;5.76;100.00
21956;BME280;11142;49.930;8.606;2022-12-07T06:39:07;100101.00;;;5.85;100.00
21956;BME280;11142;49.930;8.606;2022-12-07T06:41:36;100097.06;;;5.77;100.00
21956;BME280;11142;49.930;8.606;2022-12-07T06:44:04;100103.16;;;5.74;100.00
21956;BME280;11142;49.930;8.606;2022-12-07T06:46:32;100103.38;;;5.70;100.00
21956;BME280;11142;49.930;8.606;2022-12-07T06:49:03;100100.16;;;5.65;100.00
21956;BME280;11142;49.930;8.606;2022-12-07T06:51:31;100102.84;;;5.62;100.00
21956;BME280;11142;49.930;8.606;2022-12-07T06:54:00;100097.31;;;5.71;100.00
21956;BME280;11142;49.930;8.606;2022-12-07T06:56:28;100095.63;;;5.90;100.00
21956;BME280;11142;49.930;8.606;2022-12-07T06:58:56;100098.03;;;5.74;100.00
21956;BME280;11142;49.930;8.606;2022-12-07T07:01:25;100102.09;;;5.80;100.00
21956;BME280;11142;49.930;8.606;2022-12-07T07:03:53;100099.88;;;5.71;100.00
21956;BME280;11142;49.930;8.606;2022-12-07T07:06:21;100101.91;;;5.64;100.00
21956;BME280;11142;49.930;8.606;2022-12-07T07:08:51;100112.31;;;5.61;100.00
21956;BME280;11142;49.930;8.606;2022-12-07T07:11:22;100105.06;;;5.51;100.00
21956;BME280;11142;49.930;8.606;2022-12-07T07:13:50;100109.31;;;5.52;100.00
21956;BME280;11142;49.930;8.606;2022-12-07T07:16:18;100106.41;;;5.39;100.00
21956;BME280;11142;49.930;8.606;2022-12-07T07:18:48;100102.94;;;5.60;100.00
21956;BME280;11142;49.930;8.606;2022-12-07T07:21:16;100110.84;;;5.76;100.00
21956;BME280;11142;49.930;8.606;2022-12-07T07:23:44;100114.88;;;5.81;100.00
21956;BME280;11142;49.930;8.606;2022-12-07T07:26:14;100115.34;;;5.91;100.00
21956;BME280;11142;49.930;8.606;2022-12-07T07:28:50;100112.75;;;6.11;100.00
21956;BME280;11142;49.930;8.606;2022-12-07T07:31:18;100124.44;;;6.18;100.00
21956;BME280;11142;49.930;8.606;2022-12-07T07:33:46;100119.50;;;6.14;100.00
21956;BME280;11142;49.930;8.606;2022-12-07T07:36:15;100123.19;;;6.27;100.00
21956;BME280;11142;49.930;8.606;2022-12-07T07:38:43;100125.06;;;6.23;100.00
21956;BME280;11142;49.930;8.606;2022-12-07T07:41:11;100131.25;;;6.19;100.00
21956;BME280;11142;49.930;8.606;2022-12-07T07:43:39;100132.72;;;6.25;100.00
21956;BME280;11142;49.930;8.606;2022-12-07T07:46:10;100129.19;;;6.27;100.00
21956;BME280;11142;49.930;8.606;2022-12-07T07:48:40;100123.75;;;6.33;100.00
21956;BME280;11142;49.930;8.606;2022-12-07T07:51:11;100129.47;;;6.21;100.00
21956;BME280;11142;49.930;8.606;2022-12-07T07:53:46;100134.19;;;6.30;100.00
21956;BME280;11142;49.930;8.606;2022-12-07T07:56:14;100135.78;;;6.33;100.00
21956;BME280;11142;49.930;8.606;2022-12-07T07:58:43;100137.06;;;6.24;100.00
21956;BME280;11142;49.930;8.606;2022-12-07T08:01:12;100134.75;;;6.18;100.00
21956;BME280;11142;49.930;8.606;2022-12-07T08:03:41;100140.19;;;6.31;100.00
21956;BME280;11142;49.930;8.606;2022-12-07T08:06:09;100134.19;;;6.12;100.00
21956;BME280;11142;49.930;8.606;2022-12-07T08:08:38;100142.25;;;6.04;100.00
21956;BME280;11142;49.930;8.606;2022-12-07T08:11:09;100137.66;;;6.11;100.00
21956;BME280;11142;49.930;8.606;2022-12-07T08:13:38;100146.09;;;6.14;100.00
21956;BME280;11142;49.930;8.606;2022-12-07T08:16:06;100141.41;;;6.22;100.00
21956;BME280;11142;49.930;8.606;2022-12-07T08:18:37;100136.97;;;6.45;100.00
21956;BME280;11142;49.930;8.606;2022-12-07T08:21:06;100145.09;;;6.54;100.00
21956;BME280;11142;49.930;8.606;2022-12-07T08:23:35;100144.34;;;6.52;100.00
21956;BME280;11142;49.930;8.606;2022-12-07T08:26:06;100147.78;;;6.53;100.00
21956;BME280;11142;49.930;8.606;2022-12-07T08:28:35;100143.75;;;6.83;100.00
21956;BME280;11142;49.930;8.606;2022-12-07T08:31:04;100148.84;;;6.84;100.00
21956;BME280;11142;49.930;8.606;2022-12-07T08:33:34;100148.06;;;6.82;100.00
21956;BME280;11142;49.930;8.606;2022-12-07T08:36:04;100145.72;;;6.78;100.00
21956;BME280;11142;49.930;8.606;2022-12-07T08:38:35;100146.28;;;6.84;100.00
21956;BME280;11142;49.930;8.606;2022-12-07T08:41:04;100144.50;;;6.85;100.00
21956;BME280;11142;49.930;8.606;2022-12-07T08:43:34;100145.53;;;6.64;100.00
21956;BME280;11142;49.930;8.606;2022-12-07T08:46:04;100146.94;;;6.52;100.00
21956;BME280;11142;49.930;8.606;2022-12-07T08:48:37;100152.56;;;6.41;100.00
21956;BME280;11142;49.930;8.606;2022-12-07T08:51:08;100150.22;;;6.18;100.00
21956;BME280;11142;49.930;8.606;2022-12-07T08:53:37;100146.94;;;6.15;100.00
21956;BME280;11142;49.930;8.606;2022-12-07T08:56:07;100146.50;;;6.24;100.00
21956;BME280;11142;49.930;8.606;2022-12-07T08:58:36;100149.56;;;6.32;100.00
21956;BME280;11142;49.930;8.606;2022-12-07T09:01:05;100137.19;;;6.40;100.00
21956;BME280;11142;49.930;8.606;2022-12-07T09:03:34;100148.03;;;6.65;100.00
21956;BME280;11142;49.930;8.606;2022-12-07T09:06:02;100153.16;;;7.37;100.00
21956;BME280;11142;49.930;8.606;2022-12-07T09:08:33;100143.59;;;8.06;100.00
21956;BME280;11142;49.930;8.606;2022-12-07T09:11:04;100150.47;;;8.71;100.00
21956;BME280;11142;49.930;8.606;2022-12-07T09:13:33;100156.66;;;8.69;100.00
21956;BME280;11142;49.930;8.606;2022-12-07T09:16:01;100150.59;;;9.29;100.00
21956;BME280;11142;49.930;8.606;2022-12-07T09:18:30;100152.22;;;9.76;100.00
21956;BME280;11142;49.930;8.606;2022-12-07T09:20:59;100155.53;;;9.78;100.00
21956;BME280;11142;49.930;8.606;2022-12-07T09:23:27;100156.84;;;9.85;100.00
21956;BME280;11142;49.930;8.606;2022-12-07T09:25:58;100157.22;;;10.78;100.00
21956;BME280;11142;49.930;8.606;2022-12-07T09:28:33;100156.03;;;10.41;100.00
21956;BME280;11142;49.930;8.606;2022-12-07T09:31:02;100160.25;;;10.29;100.00
21956;BME280;11142;49.930;8.606;2022-12-07T09:33:52;100162.78;;;9.87;100.00
21956;BME280;11142;49.930;8.606;2022-12-07T09:36:21;100157.97;;;8.60;100.00
21956;BME280;11142;49.930;8.606;2022-12-07T09:38:49;100163.25;;;8.09;100.00
21956;BME280;11142;49.930;8.606;2022-12-07T09:41:19;100161.25;;;7.98;100.00
21956;BME280;11142;49.930;8.606;2022-12-07T09:43:48;100153.16;;;7.37;100.00
21956;BME280;11142;49.930;8.606;2022-12-07T09:46:18;100153.97;;;6.67;100.00
21956;BME280;11142;49.930;8.606;2022-12-07T09:48:48;100156.88;;;6.60;100.00
21956;BME280;11142;49.930;8.606;2022-12-07T09:51:19;100160.72;;;6.32;100.00
21956;BME280;11142;49.930;8.606;2022-12-07T09:53:51;100146.16;;;6.31;100.00
21956;BME280;11142;49.930;8.606;2022-12-07T09:56:21;100151.94;;;6.74;100.00
21956;BME280;11142;49.930;8.606;2022-12-07T09:58:58;100153.94;;;6.86;100.00
21956;BME280;11142;49.930;8.606;2022-12-07T10:01:28;100152.06;;;6.71;100.00
21956;BME280;11142;49.930;8.606;2022-12-07T10:03:59;100149.50;;;6.71;100.00
21956;BME280;11142;49.930;8.606;2022-12-07T10:06:31;100152.53;;;6.79;100.00
21956;BME280;11142;49.930;8.606;2022-12-07T10:09:00;100147.09;;;6.85;100.00
21956;BME280;11142;49.930;8.606;2022-12-07T10:11:32;100145.03;;;7.27;100.00
21956;BME280;11142;49.930;8.606;2022-12-07T10:14:10;100145.19;;;7.76;100.00
21956;BME280;11142;49.930;8.606;2022-12-07T10:16:39;100145.94;;;7.78;100.00
21956;BME280;11142;49.930;8.606;2022-12-07T10:22:01;100139.19;;;7.75;100.00
21956;BME280;11142;49.930;8.606;2022-12-07T10:24:29;100135.84;;;7.73;100.00
21956;BME280;11142;49.930;8.606;2022-12-07T10:26:59;100125.84;;;8.16;100.00
21956;BME280;11142;49.930;8.606;2022-12-07T10:29:28;100131.19;;;8.13;100.00
21956;BME280;11142;49.930;8.606;2022-12-07T10:31:59;100126.91;;;8.60;100.00
21956;BME280;11142;49.930;8.606;2022-12-07T10:34:29;100127.00;;;8.74;100.00
21956;BME280;11142;49.930;8.606;2022-12-07T10:37:14;100123.78;;;10.86;98.12
21956;BME280;11142;49.930;8.606;2022-12-07T10:39:43;100115.16;;;12.02;80.87
21956;BME280;11142;49.930;8.606;2022-12-07T10:42:19;100123.94;;;10.97;83.81
21956;BME280;11142;49.930;8.606;2022-12-07T10:44:50;100115.94;;;9.76;96.65
21956;BME280;11142;49.930;8.606;2022-12-07T10:47:21;100118.00;;;9.11;100.00
21956;BME280;11142;49.930;8.606;2022-12-07T10:50:01;100117.03;;;8.98;100.00
21956;BME280;11142;49.930;8.606;2022-12-07T10:52:37;100118.91;;;8.65;100.00
21956;BME280;11142;49.930;8.606;2022-12-07T10:55:11;100112.31;;;7.95;100.00
21956;BME280;11142;49.930;8.606;2022-12-07T10:57:47;100111.44;;;8.12;100.00
21956;BME280;11142;49.930;8.606;2022-12-07T11:00:20;100100.22;;;8.28;100.00
21956;BME280;11142;49.930;8.606;2022-12-07T11:02:53;100096.97;;;8.40;100.00
21956;BME280;11142;49.930;8.606;2022-12-07T11:05:24;100088.97;;;8.45;100.00
21956;BME280;11142;49.930;8.606;2022-12-07T11:07:57;100088.31;;;8.41;100.00
21956;BME280;11142;49.930;8.606;2022-12-07T11:10:29;100095.19;;;8.25;100.00
21956;BME280;11142;49.930;8.606;2022-12-07T11:13:16;100080.50;;;8.26;100.00
21956;BME280;11142;49.930;8.606;2022-12-07T11:15:56;100080.72;;;8.54;100.00
21956;BME280;11142;49.930;8.606;2022-12-07T11:18:32;100084.31;;;8.51;100.00
21956;BME280;11142;49.930;8.606;2022-12-07T11:21:04;100086.28;;;8.78;100.00
21956;BME280;11142;49.930;8.606;2022-12-07T11:23:37;100077.22;;;8.55;100.00
21956;BME280;11142;49.930;8.606;2022-12-07T11:26:09;100084.25;;;8.05;100.00
21956;BME280;11142;49.930;8.606;2022-12-07T11:28:47;100080.28;;;7.82;100.00
21956;BME280;11142;49.930;8.606;2022-12-07T11:31:24;100076.47;;;7.89;100.00
21956;BME280;11142;49.930;8.606;2022-12-07T11:33:59;100080.84;;;8.67;100.00
21956;BME280;11142;49.930;8.606;2022-12-07T11:36:31;100070.00;;;9.49;100.00
21956;BME280;11142;49.930;8.606;2022-12-07T11:39:02;100075.50;;;10.83;99.62
21956;BME280;11142;49.930;8.606;2022-12-07T11:41:31;100071.31;;;11.20;88.09
21956;BME280;11142;49.930;8.606;2022-12-07T11:44:04;100063.69;;;11.82;85.13
21956;BME280;11142;49.930;8.606;2022-12-07T11:46:39;100060.44;;;11.40;83.99
21956;BME280;11142;49.930;8.606;2022-12-07T11:49:10;100064.97;;;10.99;86.65
21956;BME280;11142;49.930;8.606;2022-12-07T11:51:40;100062.69;;;10.68;87.58
21956;BME280;11142;49.930;8.606;2022-12-07T11:54:11;100055.31;;;9.92;88.84
21956;BME280;11142;49.930;8.606;2022-12-07T11:56:40;100059.41;;;9.54;94.84
21956;BME280;11142;49.930;8.606;2022-12-07T11:59:10;100056.16;;;9.50;97.85
21956;BME280;11142;49.930;8.606;2022-12-07T12:01:44;100038.84;;;9.51;98.03
21956;BME280;11142;49.930;8.606;2022-12-07T12:04:23;100036.78;;;9.28;96.73
21956;BME280;11142;49.930;8.606;2022-12-07T12:06:53;100042.22;;;9.09;98.03
21956;BME280;11142;49.930;8.606;2022-12-07T12:09:26;100034.16;;;9.14;94.44
21956;BME280;11142;49.930;8.606;2022-12-07T12:15:16;100031.91;;;9.51;97.37
21956;BME280;11142;49.930;8.606;2022-12-07T12:17:50;100037.16;;;9.36;92.99
21956;BME280;11142;49.930;8.606;2022-12-07T12:20:21;100024.63;;;9.00;91.62
21956;BME280;11142;49.930;8.606;2022-12-07T12:22:52;100026.78;;;8.78;97.69
21956;BME280;11142;49.930;8.606;2022-12-07T12:25:22;100028.28;;;8.66;96.99
21956;BME280;11142;49.930;8.606;2022-12-07T12:27:52;100020.31;;;8.55;97.33
21956;BME280;11142;49.930;8.606;2022-12-07T12:30:29;100019.41;;;8.56;95.90
21956;BME280;11142;49.930;8.606;2022-12-07T12:33:03;100021.56;;;8.01;97.66
21956;BME280;11142;49.930;8.606;2022-12-07T12:35:36;100016.69;;;7.64;100.00
21956;BME280;11142;49.930;8.606;2022-12-07T12:38:24;100013.69;;;7.71;100.00
21956;BME280;11142;49.930;8.606;2022-12-07T12:40:55;100012.56;;;7.92;100.00
21956;BME280;11142;49.930;8.606;2022-12-07T12:55:00;99999.16;;;7.86;100.00
21956;BME280;11142;49.930;8.606;2022-12-07T12:57:30;99995.03;;;7.82;100.00
21956;BME280;11142;49.930;8.606;2022-12-07T12:59:59;99988.81;;;7.70;100.00
21956;BME280;11142;49.930;8.606;2022-12-07T13:02:28;99990.66;;;7.35;100.00
21956;BME280;11142;49.930;8.606;2022-12-07T13:04:58;99994.13;;;7.34;100.00
21956;BME280;11142;49.930;8.606;2022-12-07T13:07:48;99987.28;;;7.33;100.00
21956;BME280;11142;49.930;8.606;2022-12-07T13:10:29;99986.06;;;7.73;100.00
21956;BME280;11142;49.930;8.606;2022-12-07T13:13:01;99988.16;;;7.98;100.00
21956;BME280;11142;49.930;8.606;2022-12-07T13:15:34;99991.56;;;9.61;96.19
21956;BME280;11142;49.930;8.606;2022-12-07T13:18:03;99983.34;;;11.53;77.62
21956;BME280;11142;49.930;8.606;2022-12-07T13:20:45;99985.94;;;12.39;73.47
21956;BME280;11142;49.930;8.606;2022-12-07T13:23:15;99983.72;;;13.15;64.77
21956;BME280;11142;49.930;8.606;2022-12-07T13:25:48;99984.19;;;11.16;73.00
21956;BME280;11142;49.930;8.606;2022-12-07T13:28:21;99980.34;;;9.04;86.69
21956;BME280;11142;49.930;8.606;2022-12-07T13:33:42;99975.75;;;10.48;82.43
21956;BME280;11142;49.930;8.606;2022-12-07T13:36:12;99974.16;;;11.86;72.93
21956;BME280;11142;49.930;8.606;2022-12-07T13:38:48;99972.53;;;12.32;67.32
21956;BME280;11142;49.930;8.606;2022-12-07T13:41:18;99976.28;;;13.44;60.76
21956;BME280;11142;49.930;8.606;2022-12-07T13:43:50;99968.00;;;12.93;63.79
21956;BME280;11142;49.930;8.606;2022-12-07T13:46:20;99975.44;;;12.27;62.36
21956;BME280;11142;49.930;8.606;2022-12-07T13:48:52;99969.53;;;11.15;69.46
21956;BME280;11142;49.930;8.606;2022-12-07T13:51:22;99981.88;;;9.51;80.10
21956;BME280;11142;49.930;8.606;2022-12-07T13:53:52;99972.97;;;8.23;92.88
21956;BME280;11142;49.930;8.606;2022-12-07T13:56:22;99982.03;;;6.85;100.00
21956;BME280;11142;49.930;8.606;2022-12-07T13:58:54;99959.72;;;6.32;100.00
21956;BME280;11142;49.930;8.606;2022-12-07T14:01:23;99959.66;;;6.34;100.00
21956;BME280;11142;49.930;8.606;2022-12-07T14:03:51;99959.22;;;6.43;100.00
21956;BME280;11142;49.930;8.606;2022-12-07T14:06:22;99962.09;;;6.71;100.00
21956;BME280;11142;49.930;8.606;2022-12-07T14:09:06;99960.53;;;6.69;100.00
21956;BME280;11142;49.930;8.606;2022-12-07T14:11:35;99968.50;;;7.14;99.20
21956;BME280;11142;49.930;8.606;2022-12-07T14:14:03;99965.50;;;7.06;100.00
21956;BME280;11142;49.930;8.606;2022-12-07T14:16:33;99967.34;;;6.87;100.00
21956;BME280;11142;49.930;8.606;2022-12-07T14:19:05;99962.59;;;6.95;100.00
21956;BME280;11142;49.930;8.606;2022-12-07T14:22:05;99965.50;;;7.06;100.00
21956;BME280;11142;49.930;8.606;2022-12-07T14:24:40;99961.94;;;7.41;100.00
21956;BME280;11142;49.930;8.606;2022-12-07T14:27:17;99965.25;;;7.43;98.25
21956;BME280;11142;49.930;8.606;2022-12-07T14:29:46;99964.56;;;7.88;96.73
21956;BME280;11142;49.930;8.606;2022-12-07T14:32:22;99965.63;;;7.84;96.70
21956;BME280;11142;49.930;8.606;2022-12-07T14:34:55;99956.03;;;7.55;100.00
21956;BME280;11142;49.930;8.606;2022-12-07T14:37:23;99960.78;;;7.47;100.00
21956;BME280;11142;49.930;8.606;2022-12-07T14:39:51;99957.75;;;7.39;100.00
21956;BME280;11142;49.930;8.606;2022-12-07T14:42:21;99953.78;;;7.16;100.00
21956;BME280;11142;49.930;8.606;2022-12-07T14:44:52;99954.31;;;6.56;100.00
21956;BME280;11142;49.930;8.606;2022-12-07T14:47:20;99961.06;;;6.22;100.00
21956;BME280;11142;49.930;8.606;2022-12-07T14:50:10;99955.06;;;6.22;100.00
21956;BME280;11142;49.930;8.606;2022-12-07T14:52:40;99952.91;;;6.31;100.00
21956;BME280;11142;49.930;8.606;2022-12-07T14:55:30;99952.50;;;6.22;100.00